createdAt,value
2017-10-17T00:00:22.408Z,17.9
2017-10-17T00:01:24.289Z,17.9
2017-10-17T00:02:26.164Z,17.6
2017-10-17T00:03:28.034Z,17.5
2017-10-17T00:04:29.931Z,17.8
2017-10-17T00:05:31.964Z,18
2017-10-17T00:06:33.845Z,18
2017-10-17T00:07:35.774Z,18
2017-10-17T00:08:37.731Z,17.9
2017-10-17T00:09:39.603Z,17.9
2017-10-17T00:10:41.467Z,18.1
2017-10-17T00:11:43.350Z,18.3
2017-10-17T00:12:45.198Z,18.3
2017-10-17T00:13:47.120Z,18.4
2017-10-17T00:14:49.008Z,18.4
2017-10-17T00:15:50.934Z,18.3
2017-10-17T00:16:52.822Z,18.2
2017-10-17T00:17:54.725Z,18.2
2017-10-17T00:18:56.677Z,18.1
2017-10-17T00:19:58.783Z,17.9
2017-10-17T00:21:00.790Z,17.8
2017-10-17T00:22:02.787Z,17.7
2017-10-17T00:23:04.682Z,17.5
2017-10-17T00:24:06.641Z,17.4
2017-10-17T00:25:08.516Z,17.4
2017-10-17T00:26:10.406Z,17.7
2017-10-17T00:27:12.366Z,17.5
2017-10-17T00:28:14.275Z,17.6
2017-10-17T00:29:16.219Z,17.7
2017-10-17T00:30:18.169Z,17.6
2017-10-17T00:31:20.122Z,17.5
2017-10-17T00:32:22.004Z,17.4
2017-10-17T00:33:23.887Z,17.5
2017-10-17T00:34:25.876Z,17.5
2017-10-17T00:35:27.819Z,17.4
2017-10-17T00:36:29.763Z,17.5
2017-10-17T00:37:31.650Z,17.5
2017-10-17T00:38:33.505Z,17.8
2017-10-17T00:39:35.768Z,18
2017-10-17T00:40:37.689Z,18
2017-10-17T00:41:39.578Z,17.8
2017-10-17T00:42:41.383Z,17.7
2017-10-17T00:43:43.217Z,17.9
2017-10-17T00:44:45.153Z,18
2017-10-17T00:45:47.088Z,17.9
2017-10-17T00:46:48.988Z,17.6
2017-10-17T00:47:50.917Z,17.8
2017-10-17T00:48:52.782Z,18
2017-10-17T00:49:54.695Z,18.1
2017-10-17T00:50:56.631Z,18.2
2017-10-17T00:51:58.534Z,18.3
2017-10-17T00:53:00.501Z,18.4
2017-10-17T00:54:02.458Z,18.4
2017-10-17T00:55:04.438Z,18.3
2017-10-17T00:56:06.352Z,18.3
2017-10-17T00:57:08.177Z,18.2
2017-10-17T00:58:10.073Z,18
2017-10-17T00:59:11.967Z,17.8
2017-10-17T01:00:13.907Z,17.7
2017-10-17T01:01:15.832Z,17.6
2017-10-17T01:02:17.783Z,17.4
2017-10-17T01:03:19.897Z,17.7
2017-10-17T01:04:22.020Z,17.7
2017-10-17T01:05:23.973Z,17.5
2017-10-17T01:06:25.934Z,17.4
2017-10-17T01:07:27.904Z,17.6
2017-10-17T01:08:29.808Z,17.5
2017-10-17T01:09:31.833Z,17.3
2017-10-17T01:10:33.747Z,17.3
2017-10-17T01:11:36.003Z,17.2
2017-10-17T01:12:37.885Z,17.2
2017-10-17T01:13:39.745Z,17.6
2017-10-17T01:14:41.683Z,17.8
2017-10-17T01:15:43.679Z,17.6
2017-10-17T01:16:45.610Z,17.5
2017-10-17T01:17:47.454Z,17.5
2017-10-17T01:18:49.335Z,17.7
2017-10-17T01:19:51.215Z,17.6
2017-10-17T01:20:53.238Z,17.7
2017-10-17T01:21:55.058Z,17.8
2017-10-17T01:22:56.949Z,17.9
2017-10-17T01:23:58.842Z,17.9
2017-10-17T01:25:00.699Z,17.9
2017-10-17T01:26:02.643Z,17.7
2017-10-17T01:27:04.638Z,17.6
2017-10-17T01:28:06.661Z,17.5
2017-10-17T01:29:08.570Z,17.5
2017-10-17T01:30:10.454Z,17.5
2017-10-17T01:31:12.434Z,17.4
2017-10-17T01:32:14.329Z,17.3
2017-10-17T01:33:16.323Z,17.1
2017-10-17T01:34:18.244Z,17.1
2017-10-17T01:35:20.171Z,17
2017-10-17T01:36:22.146Z,16.9
2017-10-17T01:37:24.034Z,16.9
2017-10-17T01:38:25.874Z,16.8
2017-10-17T01:39:27.824Z,16.7
2017-10-17T01:40:29.836Z,16.9
2017-10-17T01:41:31.743Z,17
2017-10-17T01:42:33.728Z,17
2017-10-17T01:43:35.643Z,16.9
2017-10-17T01:44:37.723Z,16.6
2017-10-17T01:45:39.716Z,16.5
2017-10-17T01:46:42.306Z,16.4
2017-10-17T01:47:44.236Z,16.2
2017-10-17T01:48:46.101Z,15.9
2017-10-17T01:49:47.917Z,15.8
2017-10-17T01:50:49.775Z,15.8
2017-10-17T01:51:51.710Z,15.6
2017-10-17T01:52:53.781Z,15.5
2017-10-17T01:53:55.798Z,15.5
2017-10-17T01:54:57.676Z,15.4
2017-10-17T01:55:59.657Z,15.2
2017-10-17T01:57:01.681Z,15.1
2017-10-17T01:58:03.600Z,15.1
2017-10-17T01:59:05.539Z,15
2017-10-17T02:00:07.473Z,14.9
2017-10-17T02:01:09.320Z,15
2017-10-17T02:02:11.447Z,14.9
2017-10-17T02:03:13.401Z,15
2017-10-17T02:04:15.309Z,14.9
2017-10-17T02:05:17.231Z,14.9
2017-10-17T02:06:19.219Z,14.8
2017-10-17T02:07:21.221Z,14.8
2017-10-17T02:08:23.180Z,15
2017-10-17T02:09:25.020Z,14.8
2017-10-17T02:10:26.890Z,14.7
2017-10-17T02:11:28.736Z,14.6
2017-10-17T02:12:30.644Z,14.6
2017-10-17T02:13:32.530Z,14.8
2017-10-17T02:14:34.515Z,14.6
2017-10-17T02:15:36.500Z,14.5
2017-10-17T02:16:38.376Z,14.5
2017-10-17T02:17:40.281Z,14.5
2017-10-17T02:18:42.117Z,14.4
2017-10-17T02:19:44.034Z,14.4
2017-10-17T02:20:45.924Z,14.5
2017-10-17T02:21:47.838Z,14.7
2017-10-17T02:22:49.791Z,14.9
2017-10-17T02:23:51.711Z,14.9
2017-10-17T02:24:53.609Z,15.4
2017-10-17T02:25:55.558Z,15.6
2017-10-17T02:26:57.504Z,15.7
2017-10-17T02:27:59.436Z,16
2017-10-17T02:29:01.443Z,16.3
2017-10-17T02:30:03.352Z,16.4
2017-10-17T02:31:05.222Z,16.4
2017-10-17T02:32:07.182Z,16.3
2017-10-17T02:33:09.152Z,16.3
2017-10-17T02:34:11.052Z,16.2
2017-10-17T02:35:12.953Z,16.1
2017-10-17T02:36:14.957Z,16.3
2017-10-17T02:37:16.829Z,16.4
2017-10-17T02:38:18.767Z,16.3
2017-10-17T02:39:20.620Z,16.3
2017-10-17T02:40:22.592Z,16.2
2017-10-17T02:41:24.459Z,16.3
2017-10-17T02:42:26.387Z,16.4
2017-10-17T02:43:28.292Z,16.5
2017-10-17T02:44:30.158Z,16.5
2017-10-17T02:45:32.099Z,16.5
2017-10-17T02:46:34.040Z,16.4
2017-10-17T02:47:35.908Z,16.5
2017-10-17T02:48:37.884Z,16.4
2017-10-17T02:49:39.843Z,16.4
2017-10-17T02:50:41.753Z,16.4
2017-10-17T02:51:43.596Z,16.4
2017-10-17T02:52:45.546Z,16.5
2017-10-17T02:53:47.488Z,16.5
2017-10-17T02:54:49.420Z,16.4
2017-10-17T02:55:51.320Z,16.5
2017-10-17T02:56:53.175Z,16.5
2017-10-17T02:57:55.103Z,16.5
2017-10-17T02:58:56.994Z,16.4
2017-10-17T02:59:58.921Z,16.6
2017-10-17T03:01:00.861Z,16.6
2017-10-17T03:02:02.819Z,16.6
2017-10-17T03:03:04.718Z,16.5
2017-10-17T03:04:06.737Z,16.6
2017-10-17T03:05:08.648Z,16.7
2017-10-17T03:06:10.590Z,16.7
2017-10-17T03:07:12.457Z,16.6
2017-10-17T03:08:14.381Z,16.6
2017-10-17T03:09:16.329Z,16.6
2017-10-17T03:10:18.228Z,16.6
2017-10-17T03:11:20.144Z,16.8
2017-10-17T03:12:22.050Z,16.8
2017-10-17T03:13:23.946Z,16.9
2017-10-17T03:14:25.862Z,16.9
2017-10-17T03:15:27.762Z,16.9
2017-10-17T03:16:29.622Z,16.9
2017-10-17T03:17:31.510Z,16.9
2017-10-17T03:18:33.344Z,16.9
2017-10-17T03:19:35.295Z,16.9
2017-10-17T03:20:37.196Z,16.9
2017-10-17T03:21:39.035Z,16.8
2017-10-17T03:22:40.936Z,16.8
2017-10-17T03:23:42.864Z,16.8
2017-10-17T03:24:44.834Z,16.8
2017-10-17T03:25:46.829Z,16.8
2017-10-17T03:26:48.717Z,16.8
2017-10-17T03:27:50.653Z,16.7
2017-10-17T03:28:52.542Z,16.6
2017-10-17T03:29:54.453Z,16.7
2017-10-17T03:30:56.276Z,16.6
2017-10-17T03:31:58.181Z,16.6
2017-10-17T03:33:00.015Z,16.6
2017-10-17T03:34:01.897Z,16.6
2017-10-17T03:35:03.857Z,16.6
2017-10-17T03:36:05.784Z,16.5
2017-10-17T03:37:07.661Z,16.5
2017-10-17T03:38:09.535Z,16.5
2017-10-17T03:39:11.486Z,16.5
2017-10-17T03:40:13.442Z,16.6
2017-10-17T03:41:15.342Z,16.7
2017-10-17T03:42:17.274Z,16.7
2017-10-17T03:43:19.185Z,16.6
2017-10-17T03:44:21.075Z,16.6
2017-10-17T03:45:23.061Z,16.6
2017-10-17T03:46:25.070Z,16.7
2017-10-17T03:47:26.981Z,16.7
2017-10-17T03:48:28.853Z,16.6
2017-10-17T03:49:30.756Z,16.7
2017-10-17T03:50:32.668Z,16.7
2017-10-17T03:51:34.533Z,16.8
2017-10-17T03:52:36.703Z,16.8
2017-10-17T03:53:38.603Z,16.7
2017-10-17T03:54:40.608Z,16.5
2017-10-17T03:55:42.568Z,16.6
2017-10-17T03:56:44.498Z,16.8
2017-10-17T03:57:46.418Z,16.8
2017-10-17T03:58:48.393Z,16.9
2017-10-17T03:59:50.276Z,16.9
2017-10-17T04:00:52.193Z,17
2017-10-17T04:01:54.035Z,17
2017-10-17T04:02:55.941Z,16.9
2017-10-17T04:03:57.826Z,16.9
2017-10-17T04:04:59.694Z,16.9
2017-10-17T04:06:01.631Z,17
2017-10-17T04:07:03.584Z,17.1
2017-10-17T04:08:05.579Z,17
2017-10-17T04:09:07.532Z,17.1
2017-10-17T04:10:09.463Z,17.1
2017-10-17T04:11:11.448Z,17
2017-10-17T04:12:13.609Z,16.9
2017-10-17T04:13:15.553Z,16.8
2017-10-17T04:14:17.486Z,16.8
2017-10-17T04:15:19.443Z,16.8
2017-10-17T04:16:21.329Z,16.9
2017-10-17T04:17:23.277Z,16.8
2017-10-17T04:18:25.154Z,16.8
2017-10-17T04:19:27.042Z,16.7
2017-10-17T04:20:28.950Z,16.7
2017-10-17T04:21:30.882Z,16.6
2017-10-17T04:22:32.754Z,16.6
2017-10-17T04:23:34.669Z,16.5
2017-10-17T04:24:36.553Z,16.5
2017-10-17T04:25:38.465Z,16.5
2017-10-17T04:26:40.422Z,16.6
2017-10-17T04:27:42.282Z,16.6
2017-10-17T04:28:44.220Z,16.5
2017-10-17T04:29:46.132Z,16.6
2017-10-17T04:30:47.981Z,16.5
2017-10-17T04:31:49.915Z,16.5
2017-10-17T04:32:51.771Z,16.4
2017-10-17T04:33:53.665Z,16.5
2017-10-17T04:34:55.619Z,16.6
2017-10-17T04:35:57.792Z,16.6
2017-10-17T04:36:59.724Z,16.6
2017-10-17T04:38:01.699Z,16.5
2017-10-17T04:39:03.780Z,16.6
2017-10-17T04:40:05.745Z,16.5
2017-10-17T04:41:07.741Z,16.4
2017-10-17T04:42:09.733Z,16.4
2017-10-17T04:43:11.717Z,16.6
2017-10-17T04:44:13.668Z,16.5
2017-10-17T04:45:15.593Z,16.5
2017-10-17T04:46:17.690Z,16.5
2017-10-17T04:47:19.706Z,16.5
2017-10-17T04:48:21.618Z,16.5
2017-10-17T04:49:23.554Z,16.4
2017-10-17T04:50:25.399Z,16.4
2017-10-17T04:51:27.254Z,16.5
2017-10-17T04:52:29.175Z,16.5
2017-10-17T04:53:31.129Z,16.5
2017-10-17T04:54:32.988Z,16.5
2017-10-17T04:55:34.899Z,16.4
2017-10-17T04:56:36.965Z,16.5
2017-10-17T04:57:39.063Z,16.5
2017-10-17T04:58:40.935Z,16.5
2017-10-17T04:59:42.851Z,16.4
2017-10-17T05:00:44.773Z,16.5
2017-10-17T05:01:46.672Z,16.4
2017-10-17T05:02:48.615Z,16.4
2017-10-17T05:03:50.680Z,16.3
2017-10-17T05:04:52.503Z,16.4
2017-10-17T05:05:54.616Z,16.3
2017-10-17T05:06:56.517Z,16.5
2017-10-17T05:07:58.430Z,16.5
2017-10-17T05:09:00.396Z,16.5
2017-10-17T05:10:02.354Z,16.4
2017-10-17T05:11:04.303Z,16.4
2017-10-17T05:12:06.285Z,16.5
2017-10-17T05:13:08.263Z,16.4
2017-10-17T05:14:10.181Z,16.4
2017-10-17T05:15:12.113Z,16.3
2017-10-17T05:16:14.572Z,16.3
2017-10-17T05:17:16.466Z,16.2
2017-10-17T05:18:18.389Z,16.3
2017-10-17T05:19:20.454Z,16.3
2017-10-17T05:20:22.471Z,16.2
2017-10-17T05:21:24.413Z,16.1
2017-10-17T05:22:26.466Z,16.2
2017-10-17T05:23:28.391Z,16.3
2017-10-17T05:24:30.272Z,16.4
2017-10-17T05:25:32.192Z,16.4
2017-10-17T05:26:34.054Z,16.4
2017-10-17T05:27:35.991Z,16.5
2017-10-17T05:28:37.861Z,16.4
2017-10-17T05:29:39.712Z,16.4
2017-10-17T05:30:41.616Z,16.4
2017-10-17T05:31:43.545Z,16.4
2017-10-17T05:32:45.474Z,16.4
2017-10-17T05:33:47.360Z,16.3
2017-10-17T05:34:49.250Z,16.2
2017-10-17T05:35:51.146Z,16.2
2017-10-17T05:36:53.073Z,16.2
2017-10-17T05:37:55.024Z,16.1
2017-10-17T05:38:56.952Z,16.2
2017-10-17T05:39:58.882Z,16.2
2017-10-17T05:41:00.846Z,16.1
2017-10-17T05:42:02.733Z,16.1
2017-10-17T05:43:04.599Z,16.1
2017-10-17T05:44:06.545Z,16.1
2017-10-17T05:45:08.453Z,16
2017-10-17T05:46:10.309Z,16
2017-10-17T05:47:12.180Z,16
2017-10-17T05:48:14.057Z,16
2017-10-17T05:49:15.945Z,16
2017-10-17T05:50:17.841Z,16
2017-10-17T05:51:19.830Z,16
2017-10-17T05:52:21.966Z,16.1
2017-10-17T05:53:23.834Z,16
2017-10-17T05:54:25.790Z,15.9
2017-10-17T05:55:27.703Z,15.9
2017-10-17T05:56:29.583Z,16
2017-10-17T05:57:31.502Z,15.9
2017-10-17T05:58:33.449Z,15.9
2017-10-17T05:59:35.356Z,15.9
2017-10-17T06:00:37.268Z,15.9
2017-10-17T06:01:39.173Z,15.9
2017-10-17T06:02:41.049Z,15.9
2017-10-17T06:03:42.919Z,15.9
2017-10-17T06:04:44.919Z,15.9
2017-10-17T06:05:46.789Z,15.9
2017-10-17T06:06:48.704Z,15.8
2017-10-17T06:07:50.620Z,15.9
2017-10-17T06:08:52.598Z,15.9
2017-10-17T06:09:54.474Z,15.9
2017-10-17T06:10:56.320Z,15.9
2017-10-17T06:11:58.242Z,15.9
2017-10-17T06:13:00.133Z,15.9
2017-10-17T06:14:02.063Z,15.9
2017-10-17T06:15:04.010Z,15.9
2017-10-17T06:16:05.867Z,16
2017-10-17T06:17:07.742Z,16
2017-10-17T06:18:09.938Z,16
2017-10-17T06:19:11.929Z,16.1
2017-10-17T06:20:13.849Z,16
2017-10-17T06:21:15.753Z,16.1
2017-10-17T06:22:17.703Z,16.1
2017-10-17T06:23:19.608Z,16.1
2017-10-17T06:24:21.558Z,16
2017-10-17T06:25:23.535Z,16.1
2017-10-17T06:26:25.460Z,16.2
2017-10-17T06:27:27.382Z,16.2
2017-10-17T06:28:29.295Z,16.1
2017-10-17T06:29:31.238Z,16.1
2017-10-17T06:30:33.140Z,16.1
2017-10-17T06:31:35.029Z,16.1
2017-10-17T06:32:36.901Z,16.2
2017-10-17T06:33:38.843Z,16.2
2017-10-17T06:34:40.694Z,16.2
2017-10-17T06:35:42.834Z,16.1
2017-10-17T06:36:44.729Z,16.2
2017-10-17T06:37:46.701Z,16.1
2017-10-17T06:38:48.622Z,16.2
2017-10-17T06:39:50.874Z,16.1
2017-10-17T06:40:52.880Z,16
2017-10-17T06:41:54.810Z,16
2017-10-17T06:42:56.766Z,16.1
2017-10-17T06:43:59.023Z,16.1
2017-10-17T06:45:00.933Z,16.1
2017-10-17T06:46:02.972Z,16.1
2017-10-17T06:47:04.922Z,16.1
2017-10-17T06:48:06.829Z,16.1
2017-10-17T06:49:08.831Z,16.1
2017-10-17T06:50:10.817Z,16.1
2017-10-17T06:51:12.781Z,16.1
2017-10-17T06:52:14.650Z,16.2
2017-10-17T06:53:16.569Z,16.2
2017-10-17T06:54:18.408Z,16.2
2017-10-17T06:55:20.340Z,16.2
2017-10-17T06:56:22.328Z,16.2
2017-10-17T06:57:24.474Z,16.2
2017-10-17T06:58:26.865Z,16.3
2017-10-17T06:59:28.767Z,16.4
2017-10-17T07:00:30.639Z,16.3
2017-10-17T07:01:32.589Z,16.4
2017-10-17T07:02:34.519Z,16.3
2017-10-17T07:03:36.437Z,16.3
2017-10-17T07:04:38.330Z,16.2
2017-10-17T07:05:40.259Z,16.3
2017-10-17T07:06:42.296Z,16.4
2017-10-17T07:07:44.191Z,16.3
2017-10-17T07:08:46.049Z,16.3
2017-10-17T07:09:47.970Z,16.3
2017-10-17T07:10:49.886Z,16.4
2017-10-17T07:11:51.861Z,16.3
2017-10-17T07:12:53.713Z,16.4
2017-10-17T07:13:55.647Z,16.3
2017-10-17T07:14:57.587Z,16.4
2017-10-17T07:15:59.542Z,16.4
2017-10-17T07:17:01.419Z,16.5
2017-10-17T07:18:03.341Z,16.4
2017-10-17T07:19:05.223Z,16.3
2017-10-17T07:20:07.138Z,16.5
2017-10-17T07:21:09.134Z,16.4
2017-10-17T07:22:11.113Z,16.5
2017-10-17T07:23:13.000Z,16.4
2017-10-17T07:24:14.920Z,16.4
2017-10-17T07:25:16.779Z,16.4
2017-10-17T07:26:18.627Z,16.4
2017-10-17T07:27:20.594Z,16.4
2017-10-17T07:28:22.496Z,16.4
2017-10-17T07:29:24.845Z,16.5
2017-10-17T07:30:26.757Z,16.4
2017-10-17T07:31:28.680Z,16.5
2017-10-17T07:32:30.681Z,16.5
2017-10-17T07:33:32.540Z,16.5
2017-10-17T07:34:34.399Z,16.4
2017-10-17T07:35:36.290Z,16.6
2017-10-17T07:36:38.188Z,16.5
2017-10-17T07:37:40.136Z,16.5
2017-10-17T07:38:42.011Z,16.5
2017-10-17T07:39:43.866Z,16.6
2017-10-17T07:40:45.782Z,16.7
2017-10-17T07:41:47.731Z,16.7
2017-10-17T07:42:49.627Z,16.7
2017-10-17T07:43:51.512Z,16.5
2017-10-17T07:44:53.348Z,16.5
2017-10-17T07:45:55.263Z,16.5
2017-10-17T07:46:57.493Z,16.5
2017-10-17T07:47:59.443Z,16.6
2017-10-17T07:49:01.301Z,16.7
2017-10-17T07:50:03.251Z,16.7
2017-10-17T07:51:05.189Z,16.8
2017-10-17T07:52:07.176Z,16.8
2017-10-17T07:53:09.032Z,16.7
2017-10-17T07:54:10.928Z,16.8
2017-10-17T07:55:12.872Z,16.9
2017-10-17T07:56:14.714Z,16.7
2017-10-17T07:57:16.634Z,16.8
2017-10-17T07:58:18.601Z,16.8
2017-10-17T07:59:20.497Z,16.8
2017-10-17T08:00:22.447Z,16.8
2017-10-17T08:01:24.326Z,17
2017-10-17T08:02:26.225Z,17
2017-10-17T08:03:28.234Z,17.1
2017-10-17T08:04:30.133Z,17
2017-10-17T08:05:32.072Z,17
2017-10-17T08:06:33.990Z,17.1
2017-10-17T08:07:35.932Z,17.1
2017-10-17T08:08:37.861Z,17.3
2017-10-17T08:09:39.703Z,17.5
2017-10-17T08:10:41.634Z,17.2
2017-10-17T08:11:43.496Z,17.3
2017-10-17T08:12:45.411Z,17.3
2017-10-17T08:13:47.337Z,17.3
2017-10-17T08:14:49.235Z,17.5
2017-10-17T08:15:51.168Z,17.6
2017-10-17T08:16:53.001Z,17.8
2017-10-17T08:17:54.941Z,18
2017-10-17T08:18:56.882Z,17.9
2017-10-17T08:19:58.814Z,18.1
2017-10-17T08:21:00.768Z,18.2
2017-10-17T08:22:02.635Z,18.4
2017-10-17T08:23:04.554Z,18.3
2017-10-17T08:24:06.514Z,18.1
2017-10-17T08:25:08.462Z,18.4
2017-10-17T08:26:10.391Z,18.7
2017-10-17T08:27:12.359Z,18.4
2017-10-17T08:28:14.345Z,18.4
2017-10-17T08:29:16.294Z,18.5
2017-10-17T08:30:18.257Z,18.7
2017-10-17T08:31:20.270Z,18.5
2017-10-17T08:32:22.178Z,18.7
2017-10-17T08:33:24.126Z,18.8
2017-10-17T08:34:26.096Z,18.8
2017-10-17T08:35:27.955Z,19.3
2017-10-17T08:36:29.865Z,18.8
2017-10-17T08:37:31.741Z,19.2
2017-10-17T08:38:33.639Z,19.1
2017-10-17T08:39:35.592Z,19.2
2017-10-17T08:40:37.499Z,19.4
2017-10-17T08:41:39.427Z,19.5
2017-10-17T08:42:41.313Z,19.7
2017-10-17T08:43:43.291Z,19.8
2017-10-17T08:44:45.246Z,20.5
2017-10-17T08:45:47.263Z,20.4
2017-10-17T08:46:49.253Z,21.5
2017-10-17T08:47:51.216Z,21.9
2017-10-17T08:48:53.120Z,21.9
2017-10-17T08:49:55.076Z,21.2
2017-10-17T08:50:56.955Z,22.1
2017-10-17T08:51:58.873Z,22.9
2017-10-17T08:53:00.836Z,22.7
2017-10-17T08:54:02.759Z,22.5
2017-10-17T08:55:04.768Z,23
2017-10-17T08:56:06.679Z,23
2017-10-17T08:57:08.584Z,23.4
2017-10-17T08:58:10.530Z,23.1
2017-10-17T08:59:12.553Z,23.4
2017-10-17T09:00:14.504Z,24.1
2017-10-17T09:01:16.511Z,23.6
2017-10-17T09:02:18.446Z,24.1
2017-10-17T09:03:20.385Z,23.4
2017-10-17T09:04:22.288Z,22.5
2017-10-17T09:05:24.516Z,23.2
2017-10-17T09:06:26.438Z,24
2017-10-17T09:07:28.321Z,23.1
2017-10-17T09:08:30.183Z,24.1
2017-10-17T09:09:32.128Z,24.6
2017-10-17T09:10:34.057Z,23.6
2017-10-17T09:11:35.952Z,24.1
2017-10-17T09:12:37.802Z,24.6
2017-10-17T09:13:39.762Z,24.7
2017-10-17T09:14:41.758Z,24.5
2017-10-17T09:15:44.039Z,24.2
2017-10-17T09:16:45.955Z,24.5
2017-10-17T09:17:47.868Z,24
2017-10-17T09:18:49.798Z,24.7
2017-10-17T09:19:51.732Z,24.2
2017-10-17T09:20:53.657Z,24.1
2017-10-17T09:21:55.599Z,23.8
2017-10-17T09:22:57.561Z,24.2
2017-10-17T09:23:59.452Z,24.8
2017-10-17T09:25:01.412Z,25.1
2017-10-17T09:26:03.362Z,24.7
2017-10-17T09:27:05.325Z,24.3
2017-10-17T09:28:07.501Z,25.1
2017-10-17T09:29:09.456Z,25.2
2017-10-17T09:30:11.366Z,24.9
2017-10-17T09:31:13.680Z,24.8
2017-10-17T09:32:15.604Z,24.9
2017-10-17T09:33:17.543Z,25.3
2017-10-17T09:34:19.461Z,25.2
2017-10-17T09:35:21.355Z,24.7
2017-10-17T09:36:23.590Z,25.2
2017-10-17T09:37:25.538Z,24.8
2017-10-17T09:38:27.494Z,24
2017-10-17T09:39:29.453Z,24.4
2017-10-17T09:40:31.373Z,24.7
2017-10-17T09:41:33.302Z,25.2
2017-10-17T09:42:35.218Z,24.6
2017-10-17T09:43:37.126Z,23.4
2017-10-17T09:44:39.034Z,22.3
2017-10-17T09:45:40.921Z,21.7
2017-10-17T09:46:42.850Z,21.6
2017-10-17T09:47:44.753Z,21.6
2017-10-17T09:48:46.679Z,21.7
2017-10-17T09:49:48.619Z,21.6
2017-10-17T09:50:50.562Z,21.6
2017-10-17T09:51:52.673Z,21.6
2017-10-17T09:52:54.635Z,21.6
2017-10-17T09:53:56.508Z,21.5
2017-10-17T09:54:58.456Z,21
2017-10-17T09:56:00.376Z,21.3
2017-10-17T09:57:02.600Z,21.6
2017-10-17T09:58:04.499Z,21.5
2017-10-17T09:59:06.562Z,21.6
2017-10-17T10:00:08.727Z,21.7
2017-10-17T10:01:10.633Z,21.6
2017-10-17T10:02:12.604Z,21.5
2017-10-17T10:03:14.503Z,21.6
2017-10-17T10:04:16.361Z,21.7
2017-10-17T10:05:18.233Z,21.7
2017-10-17T10:06:20.163Z,21.5
2017-10-17T10:07:22.081Z,21.6
2017-10-17T10:08:24.019Z,21.6
2017-10-17T10:09:25.938Z,21.7
2017-10-17T10:10:27.856Z,21.8
2017-10-17T10:11:29.778Z,21.7
2017-10-17T10:12:31.781Z,21.3
2017-10-17T10:13:33.792Z,21.5
2017-10-17T10:14:35.692Z,21.6
2017-10-17T10:15:37.613Z,21.5
2017-10-17T10:16:39.522Z,21.6
2017-10-17T10:17:41.504Z,21.5
2017-10-17T10:18:43.419Z,21.5
2017-10-17T10:19:45.364Z,21.6
2017-10-17T10:20:47.308Z,21.7
2017-10-17T10:21:49.186Z,21.8
2017-10-17T10:22:51.357Z,21.9
2017-10-17T10:23:53.284Z,21.9
2017-10-17T10:24:55.235Z,21.9
2017-10-17T10:25:57.164Z,22
2017-10-17T10:26:59.154Z,22
2017-10-17T10:28:01.178Z,22
2017-10-17T10:29:03.166Z,22
2017-10-17T10:30:05.124Z,22.1
2017-10-17T10:31:07.048Z,22.4
2017-10-17T10:32:08.922Z,22.4
2017-10-17T10:33:10.888Z,22.2
2017-10-17T10:34:12.817Z,22.2
2017-10-17T10:35:14.777Z,21.9
2017-10-17T10:36:16.652Z,22.1
2017-10-17T10:37:18.539Z,22.2
2017-10-17T10:38:20.522Z,22.1
2017-10-17T10:39:22.464Z,22.3
2017-10-17T10:40:24.429Z,22.4
2017-10-17T10:41:26.354Z,22.3
2017-10-17T10:42:28.288Z,22.2
2017-10-17T10:43:30.485Z,22.2
2017-10-17T10:44:32.420Z,22.2
2017-10-17T10:45:34.490Z,22.2
2017-10-17T10:46:36.408Z,22.3
2017-10-17T10:47:38.339Z,22.3
2017-10-17T10:48:40.534Z,22.4
2017-10-17T10:49:42.400Z,22.5
2017-10-17T10:50:44.344Z,22.4
2017-10-17T10:51:46.320Z,22.2
2017-10-17T10:52:48.276Z,22.2
2017-10-17T10:53:50.214Z,22.2
2017-10-17T10:54:52.170Z,22.3
2017-10-17T10:55:54.311Z,22.3
2017-10-17T10:56:56.257Z,22.3
2017-10-17T10:57:58.283Z,22.2
2017-10-17T10:59:00.169Z,22.3
2017-10-17T11:00:02.057Z,22.4
2017-10-17T11:01:04.060Z,22.3
2017-10-17T11:02:05.981Z,22.5
2017-10-17T11:03:07.908Z,22.6
2017-10-17T11:04:10.186Z,22.6
2017-10-17T11:05:12.251Z,22.6
2017-10-17T11:06:14.133Z,22.5
2017-10-17T11:07:16.006Z,22.6
2017-10-17T11:08:17.908Z,22.8
2017-10-17T11:09:19.857Z,22.6
2017-10-17T11:10:21.825Z,22.8
2017-10-17T11:11:23.672Z,22.7
2017-10-17T11:12:25.599Z,22.7
2017-10-17T11:13:27.507Z,22.7
2017-10-17T11:14:29.777Z,22.8
2017-10-17T11:15:31.713Z,22.9
2017-10-17T11:16:33.597Z,22.9
2017-10-17T11:17:35.459Z,22.9
2017-10-17T11:18:37.402Z,22.9
2017-10-17T11:19:39.328Z,22.8
2017-10-17T11:20:41.185Z,22.9
2017-10-17T11:21:43.098Z,22.9
2017-10-17T11:22:45.021Z,22.9
2017-10-17T11:23:47.169Z,23
2017-10-17T11:24:49.114Z,23.1
2017-10-17T11:25:51.020Z,23
2017-10-17T11:26:52.947Z,22.9
2017-10-17T11:27:54.863Z,23.1
2017-10-17T11:28:56.766Z,23
2017-10-17T11:29:59.051Z,23
2017-10-17T11:31:01.043Z,22.9
2017-10-17T11:32:02.948Z,22.9
2017-10-17T11:33:04.842Z,23.2
2017-10-17T11:34:06.694Z,23.3
2017-10-17T11:35:08.906Z,23
2017-10-17T11:36:10.814Z,22.7
2017-10-17T11:37:12.802Z,22.7
2017-10-17T11:38:14.797Z,22.8
2017-10-17T11:39:16.686Z,22.9
2017-10-17T11:40:18.662Z,23
2017-10-17T11:41:20.588Z,22.7
2017-10-17T11:42:22.797Z,22.7
2017-10-17T11:43:24.675Z,22.7
2017-10-17T11:44:26.583Z,22.8
2017-10-17T11:45:28.569Z,22.9
2017-10-17T11:46:30.462Z,22.9
2017-10-17T11:47:32.386Z,22.8
2017-10-17T11:48:34.281Z,22.4
2017-10-17T11:49:36.338Z,22.5
2017-10-17T11:50:38.564Z,22.8
2017-10-17T11:51:40.451Z,22.8
2017-10-17T11:52:42.387Z,23
2017-10-17T11:53:44.295Z,23.1
2017-10-17T11:54:46.184Z,23
2017-10-17T11:55:48.223Z,22.9
2017-10-17T11:56:50.120Z,22.9
2017-10-17T11:57:52.026Z,22.9
2017-10-17T11:58:54.000Z,22.8
2017-10-17T11:59:55.961Z,22.7
2017-10-17T12:00:58.135Z,22.9
2017-10-17T12:02:00.034Z,22.9
2017-10-17T12:03:02.033Z,22.9
2017-10-17T12:04:03.933Z,22.9
2017-10-17T12:05:05.786Z,23
2017-10-17T12:06:08.064Z,23
2017-10-17T12:07:09.976Z,23
2017-10-17T12:08:11.920Z,23
2017-10-17T12:09:13.817Z,23
2017-10-17T12:10:15.769Z,23.2
2017-10-17T12:11:17.971Z,23.3
2017-10-17T12:12:19.908Z,23.5
2017-10-17T12:13:21.765Z,23.4
2017-10-17T12:14:23.695Z,23.4
2017-10-17T12:15:25.581Z,23.4
2017-10-17T12:16:27.475Z,23.2
2017-10-17T12:17:29.397Z,23.1
2017-10-17T12:18:31.656Z,23.1
2017-10-17T12:19:33.579Z,23.3
2017-10-17T12:20:35.507Z,23.5
2017-10-17T12:21:37.438Z,23.5
2017-10-17T12:22:39.347Z,23.4
2017-10-17T12:23:41.201Z,23.3
2017-10-17T12:24:43.150Z,23.4
2017-10-17T12:25:45.084Z,23.3
2017-10-17T12:26:46.983Z,23.2
2017-10-17T12:27:48.842Z,23.3
2017-10-17T12:28:50.733Z,23.4
2017-10-17T12:29:52.678Z,23.3
2017-10-17T12:30:54.583Z,23.2
2017-10-17T12:31:56.572Z,23.2
2017-10-17T12:32:58.527Z,23.2
2017-10-17T12:34:00.453Z,23.2
2017-10-17T12:35:02.416Z,23.2
2017-10-17T12:36:04.415Z,23.3
2017-10-17T12:37:06.366Z,23.4
2017-10-17T12:38:08.243Z,23.5
2017-10-17T12:39:10.172Z,23.4
2017-10-17T12:40:12.058Z,23.4
2017-10-17T12:41:13.961Z,23.2
2017-10-17T12:42:15.927Z,23
2017-10-17T12:43:18.181Z,22.9
2017-10-17T12:44:20.061Z,23.3
2017-10-17T12:45:22.025Z,23.5
2017-10-17T12:46:24.045Z,23.2
2017-10-17T12:47:25.999Z,22.7
2017-10-17T12:48:27.911Z,23
2017-10-17T12:49:29.848Z,22.9
2017-10-17T12:50:31.774Z,22.8
2017-10-17T12:51:33.715Z,22.8
2017-10-17T12:52:36.015Z,22.9
2017-10-17T12:53:37.897Z,23.1
2017-10-17T12:54:39.780Z,23.2
2017-10-17T12:55:41.722Z,23.2
2017-10-17T12:56:43.603Z,23
2017-10-17T12:57:45.823Z,22.8
2017-10-17T12:58:47.801Z,23.1
2017-10-17T12:59:49.750Z,23.2
2017-10-17T13:00:51.730Z,23.2
2017-10-17T13:01:53.696Z,23.4
2017-10-17T13:02:55.620Z,23.4
2017-10-17T13:03:57.525Z,23.5
2017-10-17T13:04:59.511Z,23.4
2017-10-17T13:06:01.505Z,23.4
2017-10-17T13:07:03.414Z,23.5
2017-10-17T13:08:05.633Z,23.3
2017-10-17T13:09:07.562Z,23
2017-10-17T13:10:09.504Z,23.1
2017-10-17T13:11:11.393Z,23.1
2017-10-17T13:12:13.359Z,23.2
2017-10-17T13:13:15.317Z,22.9
2017-10-17T13:14:17.229Z,22.7
2017-10-17T13:15:19.201Z,22.9
2017-10-17T13:16:21.236Z,22.6
2017-10-17T13:17:23.183Z,22.7
2017-10-17T13:18:25.267Z,22.8
2017-10-17T13:19:27.204Z,23.1
2017-10-17T13:20:29.101Z,23.1
2017-10-17T13:21:31.046Z,23.3
2017-10-17T13:22:33.150Z,23
2017-10-17T13:23:35.130Z,22.8
2017-10-17T13:24:37.006Z,22.9
2017-10-17T13:25:38.914Z,23
2017-10-17T13:26:40.802Z,23.1
2017-10-17T13:27:42.756Z,23.3
2017-10-17T13:28:44.821Z,23.3
2017-10-17T13:29:46.801Z,23.2
2017-10-17T13:30:48.705Z,23.4
2017-10-17T13:31:50.640Z,23.4
2017-10-17T13:32:52.568Z,23.4
2017-10-17T13:33:54.455Z,23.3
2017-10-17T13:34:56.398Z,23.1
2017-10-17T13:35:58.370Z,23
2017-10-17T13:37:00.247Z,23
2017-10-17T13:38:02.125Z,23.1
2017-10-17T13:39:04.047Z,23.3
2017-10-17T13:40:06.042Z,23.2
2017-10-17T13:41:08.004Z,23.1
2017-10-17T13:42:09.883Z,23.3
2017-10-17T13:43:11.975Z,22.9
2017-10-17T13:44:13.917Z,23
2017-10-17T13:45:15.882Z,23
2017-10-17T13:46:17.873Z,23.1
2017-10-17T13:47:20.215Z,23.3
2017-10-17T13:48:22.229Z,22.7
2017-10-17T13:49:24.506Z,22.6